AAL882 KFLL-KJAX
Flight info
| Callsign | AAL882 |
|---|---|
| Flight time | N/A |
| Altitude | 30000 |
| Route | FRSBE2 STYMY ORL HAINY QUBEN2 |
| Aircraft | B77W/H-SDE1E2E3FGHIJ2J3J4J5M1RWXY/LB1D1 |
Departure
| Time | 2026-05-04 00:28 |
|---|---|
| Airport | Fort Lauderdale Hollywood International Airport (KFLL) |
Arrival
| Time | N/A |
|---|---|
| Airport | Jacksonville International Airport (KJAX) |
| Time | Latitude | Longitude | Altitude | Speed | Heading |
|---|---|---|---|---|---|
| 2026-05-03 23:06 | 26.07410 | -80.13912 | 24 ft | 0 kts | 150° |
| 2026-05-03 23:16 | 26.07416 | -80.13917 | 24 ft | 3 kts | 150° |
| 2026-05-03 23:16 | 26.07433 | -80.13927 | 27 ft | 3 kts | 152° |
| 2026-05-03 23:16 | 26.07451 | -80.13933 | 27 ft | 3 kts | 188° |
| 2026-05-03 23:17 | 26.07470 | -80.13926 | 26 ft | 3 kts | 226° |
| 2026-05-03 23:17 | 26.07479 | -80.13913 | 27 ft | 0 kts | 241° |
| 2026-05-03 23:25 | 26.07476 | -80.13918 | 27 ft | 3 kts | 244° |
| 2026-05-03 23:26 | 26.07475 | -80.13959 | 29 ft | 10 kts | 278° |
| 2026-05-03 23:26 | 26.07499 | -80.14023 | 27 ft | 8 kts | 281° |
| 2026-05-03 23:26 | 26.07488 | -80.14086 | 28 ft | 8 kts | 261° |
| 2026-05-03 23:26 | 26.07486 | -80.14158 | 29 ft | 10 kts | 271° |
| 2026-05-03 23:27 | 26.07487 | -80.14239 | 28 ft | 10 kts | 271° |
| 2026-05-03 23:27 | 26.07488 | -80.14320 | 28 ft | 10 kts | 270° |
| 2026-05-03 23:27 | 26.07489 | -80.14361 | 28 ft | 0 kts | 271° |
| 2026-05-03 23:32 | 26.07487 | -80.14428 | 29 ft | 9 kts | 266° |
| 2026-05-03 23:33 | 26.07486 | -80.14479 | 30 ft | 10 kts | 270° |
| 2026-05-03 23:33 | 26.07486 | -80.14555 | 31 ft | 10 kts | 270° |
| 2026-05-03 23:33 | 26.07486 | -80.14632 | 30 ft | 10 kts | 270° |
| 2026-05-03 23:33 | 26.07489 | -80.14713 | 29 ft | 11 kts | 275° |
| 2026-05-03 23:34 | 26.07533 | -80.14784 | 28 ft | 11 kts | 316° |
| 2026-05-03 23:34 | 26.07564 | -80.14862 | 27 ft | 12 kts | 271° |
| 2026-05-03 23:34 | 26.07562 | -80.14956 | 29 ft | 13 kts | 269° |
| 2026-05-03 23:34 | 26.07563 | -80.15056 | 27 ft | 13 kts | 271° |
| 2026-05-03 23:35 | 26.07565 | -80.15156 | 22 ft | 13 kts | 271° |
| 2026-05-03 23:35 | 26.07566 | -80.15237 | 22 ft | 10 kts | 271° |
| 2026-05-03 23:35 | 26.07561 | -80.15279 | 26 ft | 0 kts | 246° |
| 2026-05-03 23:35 | 26.07554 | -80.15289 | 23 ft | 10 kts | 226° |
| 2026-05-03 23:36 | 26.07491 | -80.15346 | 23 ft | 12 kts | 265° |
| 2026-05-03 23:36 | 26.07490 | -80.15433 | 21 ft | 8 kts | 270° |
| 2026-05-03 23:36 | 26.07490 | -80.15436 | 22 ft | 0 kts | 270° |
| 2026-05-03 23:40 | 26.07491 | -80.15498 | 23 ft | 10 kts | 271° |
| 2026-05-03 23:40 | 26.07493 | -80.15541 | 23 ft | 5 kts | 272° |
| 2026-05-03 23:40 | 26.07494 | -80.15570 | 24 ft | 0 kts | 272° |
| 2026-05-03 23:41 | 26.07494 | -80.15601 | 24 ft | 0 kts | 270° |
| 2026-05-03 23:45 | 26.07493 | -80.15660 | 24 ft | 7 kts | 269° |
| 2026-05-03 23:45 | 26.07493 | -80.15671 | 24 ft | 0 kts | 269° |
| 2026-05-03 23:48 | 26.07493 | -80.15690 | 24 ft | 4 kts | 269° |
| 2026-05-03 23:49 | 26.07493 | -80.15704 | 24 ft | 0 kts | 270° |
| 2026-05-03 23:51 | 26.07493 | -80.15734 | 24 ft | 9 kts | 271° |
| 2026-05-03 23:51 | 26.07494 | -80.15772 | 24 ft | 1 kts | 271° |
| 2026-05-03 23:52 | 26.07494 | -80.15776 | 24 ft | 1 kts | 271° |
| 2026-05-03 23:52 | 26.07494 | -80.15792 | 25 ft | 2 kts | 271° |
| 2026-05-03 23:52 | 26.07494 | -80.15804 | 25 ft | 0 kts | 270° |
| 2026-05-03 23:54 | 26.07494 | -80.15805 | 25 ft | 2 kts | 270° |
| 2026-05-03 23:54 | 26.07494 | -80.15829 | 25 ft | 3 kts | 269° |
| 2026-05-03 23:54 | 26.07494 | -80.15842 | 25 ft | 0 kts | 270° |
| 2026-05-03 23:55 | 26.07494 | -80.15857 | 25 ft | 4 kts | 270° |
| 2026-05-03 23:55 | 26.07494 | -80.15888 | 26 ft | 4 kts | 270° |
| 2026-05-03 23:56 | 26.07494 | -80.15891 | 26 ft | 0 kts | 270° |
| 2026-05-04 00:00 | 26.07494 | -80.15896 | 26 ft | 4 kts | 270° |
| 2026-05-04 00:01 | 26.07494 | -80.15934 | 27 ft | 5 kts | 270° |
| 2026-05-04 00:01 | 26.07494 | -80.15972 | 28 ft | 5 kts | 270° |
| 2026-05-04 00:01 | 26.07495 | -80.16010 | 29 ft | 3 kts | 271° |
| 2026-05-04 00:05 | 26.07495 | -80.16025 | 19 ft | 6 kts | 271° |
| 2026-05-04 00:05 | 26.07496 | -80.16071 | 30 ft | 6 kts | 271° |
| 2026-05-04 00:05 | 26.07496 | -80.16084 | 30 ft | 0 kts | 271° |
| 2026-05-04 00:07 | 26.07496 | -80.16111 | 30 ft | 7 kts | 271° |
| 2026-05-04 00:07 | 26.07497 | -80.16131 | 30 ft | 0 kts | 271° |
| 2026-05-04 00:07 | 26.07497 | -80.16139 | 30 ft | 5 kts | 271° |
| 2026-05-04 00:07 | 26.07498 | -80.16179 | 30 ft | 5 kts | 271° |
| 2026-05-04 00:08 | 26.07498 | -80.16226 | 30 ft | 7 kts | 271° |
| 2026-05-04 00:08 | 26.07498 | -80.16261 | 29 ft | 0 kts | 269° |
| 2026-05-04 00:08 | 26.07498 | -80.16277 | 29 ft | 8 kts | 269° |
| 2026-05-04 00:09 | 26.07497 | -80.16291 | 29 ft | 0 kts | 269° |
| 2026-05-04 00:12 | 26.07497 | -80.16313 | 29 ft | 0 kts | 267° |
| 2026-05-04 00:13 | 26.07497 | -80.16314 | 29 ft | 1 kts | 268° |
| 2026-05-04 00:13 | 26.07496 | -80.16347 | 29 ft | 0 kts | 270° |
| 2026-05-04 00:13 | 26.07497 | -80.16359 | 29 ft | 6 kts | 270° |
| 2026-05-04 00:14 | 26.07497 | -80.16368 | 29 ft | 0 kts | 270° |
| 2026-05-04 00:14 | 26.07497 | -80.16371 | 29 ft | 1 kts | 270° |
| 2026-05-04 00:14 | 26.07497 | -80.16377 | 29 ft | 1 kts | 270° |
| 2026-05-04 00:14 | 26.07497 | -80.16378 | 29 ft | 0 kts | 270° |
| 2026-05-04 00:19 | 26.07497 | -80.16400 | 29 ft | 7 kts | 271° |
| 2026-05-04 00:19 | 26.07498 | -80.16430 | 29 ft | 0 kts | 271° |
| 2026-05-04 00:20 | 26.07498 | -80.16447 | 29 ft | 3 kts | 271° |
| 2026-05-04 00:21 | 26.07498 | -80.16471 | 29 ft | 3 kts | 271° |
| 2026-05-04 00:21 | 26.07499 | -80.16484 | 29 ft | 0 kts | 271° |
| 2026-05-04 00:21 | 26.07499 | -80.16488 | 29 ft | 3 kts | 271° |
| 2026-05-04 00:21 | 26.07499 | -80.16505 | 29 ft | 1 kts | 271° |
| 2026-05-04 00:22 | 26.07500 | -80.16526 | 29 ft | 10 kts | 271° |
| 2026-05-04 00:22 | 26.07500 | -80.16536 | 29 ft | 0 kts | 272° |
| 2026-05-04 00:24 | 26.07501 | -80.16573 | 29 ft | 0 kts | 271° |
| 2026-05-04 00:24 | 26.07501 | -80.16575 | 29 ft | 0 kts | 271° |
| 2026-05-04 00:24 | 26.07501 | -80.16590 | 29 ft | 6 kts | 271° |
| 2026-05-04 00:25 | 26.07515 | -80.16628 | 28 ft | 5 kts | 335° |
| 2026-05-04 00:25 | 26.07550 | -80.16638 | 28 ft | 6 kts | 348° |
| 2026-05-04 00:25 | 26.07565 | -80.16640 | 27 ft | 0 kts | 356° |
| 2026-05-04 00:27 | 26.07572 | -80.16640 | 27 ft | 5 kts | 359° |
| 2026-05-04 00:27 | 26.07654 | -80.16638 | 26 ft | 14 kts | 1° |
| 2026-05-04 00:28 | 26.07691 | -80.16585 | 27 ft | 22 kts | 86° |
| 2026-05-04 00:28 | 26.07693 | -80.15980 | 29 ft | 136 kts | 90° |
| 2026-05-04 00:28 | 26.07687 | -80.14561 | 359 ft | 218 kts | 88° |
| 2026-05-04 00:28 | 26.07915 | -80.12755 | 1173 ft | 239 kts | 74° |
| 2026-05-04 00:29 | 26.08299 | -80.10932 | 1828 ft | 246 kts | 82° |
| 2026-05-04 00:29 | 26.08330 | -80.09007 | 2377 ft | 254 kts | 92° |
| 2026-05-04 00:29 | 26.08680 | -80.07105 | 3047 ft | 263 kts | 58° |
| 2026-05-04 00:29 | 26.10008 | -80.05717 | 3735 ft | 269 kts | 23° |
| 2026-05-04 00:30 | 26.11810 | -80.05190 | 4002 ft | 272 kts | 7° |
| 2026-05-04 00:30 | 26.13693 | -80.04761 | 3990 ft | 278 kts | 13° |
| 2026-05-04 00:30 | 26.15553 | -80.04400 | 4010 ft | 267 kts | 352° |
| 2026-05-04 00:30 | 26.17249 | -80.05084 | 4308 ft | 259 kts | 328° |
| 2026-05-04 00:31 | 26.18913 | -80.05958 | 4655 ft | 270 kts | 336° |
| 2026-05-04 00:31 | 26.20693 | -80.06669 | 4944 ft | 271 kts | 337° |
| 2026-05-04 00:31 | 26.22253 | -80.07706 | 5401 ft | 262 kts | 309° |
| 2026-05-04 00:31 | 26.23193 | -80.09445 | 6326 ft | 261 kts | 289° |
| 2026-05-04 00:32 | 26.23853 | -80.11336 | 7316 ft | 262 kts | 289° |
| 2026-05-04 00:32 | 26.24514 | -80.13207 | 8303 ft | 265 kts | 289° |
| 2026-05-04 00:32 | 26.25193 | -80.15127 | 9286 ft | 268 kts | 289° |
| 2026-05-04 00:32 | 26.25974 | -80.17020 | 10221 ft | 273 kts | 296° |
| 2026-05-04 00:33 | 26.26994 | -80.18884 | 10747 ft | 294 kts | 299° |
| 2026-05-04 00:33 | 26.29450 | -80.23077 | 11302 ft | 347 kts | 300° |
| 2026-05-04 00:33 | 26.30784 | -80.25361 | 12085 ft | 356 kts | 300° |
| 2026-05-04 00:34 | 26.32141 | -80.27704 | 12991 ft | 362 kts | 300° |
| 2026-05-04 00:34 | 26.33503 | -80.30076 | 13966 ft | 365 kts | 299° |
| 2026-05-04 00:34 | 26.34870 | -80.32471 | 14819 ft | 368 kts | 298° |
| 2026-05-04 00:34 | 26.36230 | -80.34863 | 15683 ft | 372 kts | 298° |
| 2026-05-04 00:35 | 26.37619 | -80.37313 | 16542 ft | 376 kts | 298° |
| 2026-05-04 00:35 | 26.39017 | -80.39784 | 17399 ft | 380 kts | 297° |
| 2026-05-04 00:35 | 26.40435 | -80.42290 | 18237 ft | 384 kts | 297° |
| 2026-05-04 00:35 | 26.41866 | -80.44823 | 18966 ft | 388 kts | 297° |
| 2026-05-04 00:36 | 26.43311 | -80.47378 | 19705 ft | 391 kts | 297° |
| 2026-05-04 00:36 | 26.44768 | -80.49957 | 20446 ft | 394 kts | 297° |
| 2026-05-04 00:36 | 26.46234 | -80.52553 | 21191 ft | 397 kts | 297° |
| 2026-05-04 00:36 | 26.47924 | -80.55009 | 21765 ft | 410 kts | 310° |
| 2026-05-04 00:37 | 26.50242 | -80.56912 | 22332 ft | 430 kts | 324° |
| 2026-05-04 00:37 | 26.53075 | -80.58147 | 22955 ft | 444 kts | 336° |
| 2026-05-04 00:37 | 26.56075 | -80.59079 | 23548 ft | 451 kts | 336° |
| 2026-05-04 00:37 | 26.59124 | -80.59984 | 24078 ft | 455 kts | 336° |
| 2026-05-04 00:38 | 26.62193 | -80.60897 | 24634 ft | 457 kts | 336° |
| 2026-05-04 00:38 | 26.65273 | -80.61834 | 25202 ft | 460 kts | 336° |
| 2026-05-04 00:38 | 26.68366 | -80.62797 | 25768 ft | 463 kts | 335° |
| 2026-05-04 00:38 | 26.71475 | -80.63779 | 26296 ft | 466 kts | 335° |
| 2026-05-04 00:39 | 26.74602 | -80.64775 | 26818 ft | 469 kts | 335° |
| 2026-05-04 00:39 | 26.77710 | -80.65767 | 27336 ft | 472 kts | 335° |
| 2026-05-04 00:39 | 26.80878 | -80.66779 | 27863 ft | 475 kts | 335° |
| 2026-05-04 00:39 | 26.84072 | -80.67798 | 28343 ft | 479 kts | 335° |
| 2026-05-04 00:40 | 26.87286 | -80.68822 | 28962 ft | 480 kts | 335° |
| 2026-05-04 00:40 | 26.90486 | -80.69840 | 29747 ft | 477 kts | 335° |
| 2026-05-04 00:40 | 26.93654 | -80.70918 | 30066 ft | 474 kts | 333° |
| 2026-05-04 00:41 | 26.99813 | -80.73353 | 30037 ft | 467 kts | 330° |
| 2026-05-04 00:41 | 27.05880 | -80.75859 | 30050 ft | 469 kts | 330° |
| 2026-05-04 00:42 | 27.12031 | -80.78356 | 30049 ft | 471 kts | 331° |
| 2026-05-04 00:42 | 27.18216 | -80.80827 | 30089 ft | 472 kts | 331° |
| 2026-05-04 00:43 | 27.24415 | -80.83297 | 30046 ft | 473 kts | 331° |
| 2026-05-04 00:43 | 27.30605 | -80.85766 | 30045 ft | 472 kts | 331° |
| 2026-05-04 00:44 | 27.36738 | -80.88217 | 30045 ft | 471 kts | 331° |
| 2026-05-04 00:44 | 27.42904 | -80.90687 | 30052 ft | 470 kts | 331° |
| 2026-05-04 00:45 | 27.49058 | -80.93155 | 30053 ft | 469 kts | 331° |
| 2026-05-04 00:45 | 27.55200 | -80.95621 | 30049 ft | 468 kts | 331° |
| 2026-05-04 00:46 | 27.61332 | -80.98085 | 30053 ft | 467 kts | 331° |
| 2026-05-04 00:46 | 27.67408 | -81.00531 | 30051 ft | 467 kts | 331° |
| 2026-05-04 00:47 | 27.73523 | -81.02996 | 30053 ft | 467 kts | 331° |
| 2026-05-04 00:47 | 27.79643 | -81.05465 | 30084 ft | 467 kts | 330° |
| 2026-05-04 00:48 | 27.85769 | -81.07939 | 30066 ft | 468 kts | 330° |
| 2026-05-04 00:48 | 27.91853 | -81.10399 | 30050 ft | 467 kts | 330° |
| 2026-05-04 00:49 | 27.97974 | -81.12878 | 30058 ft | 467 kts | 330° |
| 2026-05-04 00:49 | 28.04091 | -81.15356 | 30065 ft | 467 kts | 331° |
| 2026-05-04 00:50 | 28.10296 | -81.17658 | 30123 ft | 470 kts | 333° |
| 2026-05-04 00:50 | 28.16549 | -81.19856 | 30086 ft | 470 kts | 333° |
| 2026-05-04 00:51 | 28.22777 | -81.22073 | 30085 ft | 468 kts | 333° |
| 2026-05-04 00:51 | 28.28936 | -81.24297 | 30084 ft | 467 kts | 332° |
| 2026-05-04 00:52 | 28.35122 | -81.26539 | 30082 ft | 466 kts | 332° |
| 2026-05-04 00:52 | 28.41238 | -81.28750 | 30086 ft | 452 kts | 333° |
| 2026-05-04 00:53 | 28.47204 | -81.30919 | 30085 ft | 450 kts | 332° |
| 2026-05-04 00:53 | 28.53143 | -81.32972 | 30086 ft | 453 kts | 337° |
| 2026-05-04 00:54 | 28.59469 | -81.33953 | 30098 ft | 464 kts | 347° |
| 2026-05-04 00:54 | 28.65922 | -81.34313 | 30085 ft | 459 kts | 347° |
| 2026-05-04 00:54 | 28.69060 | -81.34478 | 30126 ft | 445 kts | 347° |
| 2026-05-04 00:55 | 28.72108 | -81.34652 | 30062 ft | 433 kts | 347° |
| 2026-05-04 00:55 | 28.75108 | -81.34842 | 29627 ft | 432 kts | 347° |
| 2026-05-04 00:55 | 28.78094 | -81.35042 | 29218 ft | 428 kts | 347° |
| 2026-05-04 00:55 | 28.81012 | -81.35238 | 28794 ft | 424 kts | 347° |
| 2026-05-04 00:56 | 28.83942 | -81.35434 | 28395 ft | 419 kts | 347° |
| 2026-05-04 00:56 | 28.86843 | -81.35627 | 27986 ft | 416 kts | 347° |
| 2026-05-04 00:56 | 28.89719 | -81.35818 | 27585 ft | 412 kts | 347° |
| 2026-05-04 00:56 | 28.92572 | -81.36006 | 27184 ft | 409 kts | 347° |
| 2026-05-04 00:57 | 28.95402 | -81.36192 | 26787 ft | 406 kts | 347° |
| 2026-05-04 00:57 | 28.98179 | -81.36524 | 26433 ft | 396 kts | 341° |
| 2026-05-04 00:57 | 29.00840 | -81.37179 | 25980 ft | 386 kts | 334° |
| 2026-05-04 00:57 | 29.03391 | -81.38082 | 25588 ft | 382 kts | 333° |
| 2026-05-04 00:58 | 29.05917 | -81.39006 | 25187 ft | 381 kts | 332° |
| 2026-05-04 00:58 | 29.08397 | -81.39919 | 24791 ft | 379 kts | 333° |
| 2026-05-04 00:58 | 29.10908 | -81.40840 | 24368 ft | 378 kts | 333° |
| 2026-05-04 00:58 | 29.13408 | -81.41753 | 23954 ft | 377 kts | 333° |
| 2026-05-04 00:59 | 29.15909 | -81.42662 | 23523 ft | 376 kts | 333° |
| 2026-05-04 00:59 | 29.18401 | -81.43566 | 23073 ft | 375 kts | 333° |
| 2026-05-04 00:59 | 29.20880 | -81.44463 | 22648 ft | 373 kts | 333° |
| 2026-05-04 00:59 | 29.23345 | -81.45353 | 22228 ft | 370 kts | 333° |
| 2026-05-04 01:00 | 29.25794 | -81.46238 | 21830 ft | 368 kts | 333° |
| 2026-05-04 01:00 | 29.28198 | -81.47108 | 21456 ft | 366 kts | 333° |
| 2026-05-04 01:00 | 29.30622 | -81.47986 | 21053 ft | 365 kts | 333° |
| 2026-05-04 01:00 | 29.33039 | -81.48862 | 20656 ft | 363 kts | 333° |
| 2026-05-04 01:01 | 29.35442 | -81.49733 | 20249 ft | 362 kts | 333° |
| 2026-05-04 01:01 | 29.37838 | -81.50603 | 19846 ft | 361 kts | 333° |
| 2026-05-04 01:01 | 29.40227 | -81.51470 | 19453 ft | 360 kts | 334° |
| 2026-05-04 01:01 | 29.42607 | -81.52334 | 19066 ft | 359 kts | 334° |
| 2026-05-04 01:02 | 29.44988 | -81.53199 | 18657 ft | 358 kts | 334° |
| 2026-05-04 01:02 | 29.47361 | -81.54062 | 18230 ft | 358 kts | 334° |
| 2026-05-04 01:02 | 29.49730 | -81.54924 | 17793 ft | 357 kts | 334° |
| 2026-05-04 01:02 | 29.52090 | -81.55781 | 17371 ft | 355 kts | 334° |
| 2026-05-04 01:03 | 29.54404 | -81.56623 | 16983 ft | 353 kts | 334° |
| 2026-05-04 01:03 | 29.56712 | -81.57459 | 16589 ft | 341 kts | 334° |
| 2026-05-04 01:03 | 29.58932 | -81.58261 | 16207 ft | 327 kts | 334° |
| 2026-05-04 01:03 | 29.61061 | -81.59032 | 15835 ft | 314 kts | 334° |
| 2026-05-04 01:04 | 29.63107 | -81.59776 | 15480 ft | 303 kts | 334° |
| 2026-05-04 01:04 | 29.65083 | -81.60499 | 15144 ft | 294 kts | 333° |
| 2026-05-04 01:04 | 29.67020 | -81.61211 | 14829 ft | 292 kts | 333° |
| 2026-05-04 01:04 | 29.68974 | -81.61933 | 14526 ft | 300 kts | 334° |
| 2026-05-04 01:05 | 29.71017 | -81.62690 | 14205 ft | 316 kts | 334° |
| 2026-05-04 01:05 | 29.73097 | -81.63451 | 13802 ft | 318 kts | 335° |
| 2026-05-04 01:05 | 29.75180 | -81.64205 | 13411 ft | 308 kts | 335° |
| 2026-05-04 01:05 | 29.77167 | -81.64890 | 13366 ft | 292 kts | 338° |
| 2026-05-04 01:06 | 29.79207 | -81.65243 | 12833 ft | 298 kts | 348° |
| 2026-05-04 01:06 | 29.81255 | -81.65382 | 12509 ft | 292 kts | 350° |
| 2026-05-04 01:06 | 29.83261 | -81.65499 | 12208 ft | 286 kts | 350° |
| 2026-05-04 01:06 | 29.85247 | -81.65637 | 11938 ft | 285 kts | 351° |
| 2026-05-04 01:07 | 29.87225 | -81.65792 | 11643 ft | 285 kts | 351° |
| 2026-05-04 01:07 | 29.89173 | -81.65959 | 11379 ft | 284 kts | 351° |
| 2026-05-04 01:07 | 29.91170 | -81.66138 | 11094 ft | 284 kts | 351° |
| 2026-05-04 01:07 | 29.93108 | -81.66313 | 10823 ft | 283 kts | 352° |
| 2026-05-04 01:08 | 29.95056 | -81.66549 | 10572 ft | 280 kts | 348° |
| 2026-05-04 01:08 | 29.96961 | -81.66910 | 10338 ft | 277 kts | 347° |
| 2026-05-04 01:08 | 29.98863 | -81.67306 | 10082 ft | 277 kts | 347° |
| 2026-05-04 01:08 | 30.00749 | -81.67695 | 9820 ft | 275 kts | 347° |
| 2026-05-04 01:09 | 30.02632 | -81.68070 | 9559 ft | 274 kts | 348° |
| 2026-05-04 01:09 | 30.04494 | -81.68499 | 9218 ft | 271 kts | 340° |
| 2026-05-04 01:09 | 30.06231 | -81.69293 | 8896 ft | 267 kts | 334° |
| 2026-05-04 01:09 | 30.07887 | -81.70187 | 8588 ft | 266 kts | 333° |
| 2026-05-04 01:10 | 30.09557 | -81.71100 | 8320 ft | 265 kts | 333° |
| 2026-05-04 01:10 | 30.11226 | -81.72000 | 8049 ft | 265 kts | 334° |
| 2026-05-04 01:10 | 30.12884 | -81.72880 | 7767 ft | 256 kts | 334° |
| 2026-05-04 01:10 | 30.14457 | -81.73704 | 7554 ft | 239 kts | 334° |
| 2026-05-04 01:11 | 30.15919 | -81.74463 | 7303 ft | 222 kts | 334° |
| 2026-05-04 01:11 | 30.17273 | -81.75163 | 7059 ft | 205 kts | 335° |
| 2026-05-04 01:11 | 30.18537 | -81.75814 | 6870 ft | 207 kts | 335° |
| 2026-05-04 01:11 | 30.20010 | -81.76575 | 6741 ft | 249 kts | 335° |
| 2026-05-04 01:12 | 30.21609 | -81.77397 | 6464 ft | 253 kts | 335° |
| 2026-05-04 01:12 | 30.23198 | -81.78212 | 6155 ft | 248 kts | 335° |
| 2026-05-04 01:12 | 30.24787 | -81.79025 | 5933 ft | 252 kts | 335° |
| 2026-05-04 01:12 | 30.26398 | -81.79851 | 5674 ft | 255 kts | 335° |
| 2026-05-04 01:13 | 30.28019 | -81.80681 | 5436 ft | 255 kts | 335° |
| 2026-05-04 01:13 | 30.29634 | -81.81508 | 5238 ft | 255 kts | 335° |
| 2026-05-04 01:13 | 30.31246 | -81.82334 | 5032 ft | 253 kts | 335° |
| 2026-05-04 01:13 | 30.32855 | -81.83159 | 4790 ft | 252 kts | 335° |
| 2026-05-04 01:14 | 30.34433 | -81.83969 | 4444 ft | 251 kts | 335° |
| 2026-05-04 01:14 | 30.36017 | -81.84781 | 4185 ft | 249 kts | 335° |
| 2026-05-04 01:14 | 30.37608 | -81.85598 | 3893 ft | 252 kts | 336° |
| 2026-05-04 01:14 | 30.39184 | -81.86406 | 3634 ft | 242 kts | 336° |
| 2026-05-04 01:15 | 30.40673 | -81.87168 | 3408 ft | 225 kts | 338° |
| 2026-05-04 01:15 | 30.42131 | -81.87457 | 3127 ft | 204 kts | 9° |
| 2026-05-04 01:15 | 30.43397 | -81.86954 | 2946 ft | 181 kts | 26° |
| 2026-05-04 01:15 | 30.44640 | -81.86679 | 2836 ft | 189 kts | 5° |
| 2026-05-04 01:16 | 30.45851 | -81.86262 | 2627 ft | 177 kts | 49° |
| 2026-05-04 01:16 | 30.46249 | -81.85046 | 2665 ft | 170 kts | 90° |
| 2026-05-04 01:16 | 30.46282 | -81.83663 | 2489 ft | 171 kts | 86° |
| 2026-05-04 01:16 | 30.46454 | -81.82318 | 2269 ft | 165 kts | 81° |
| 2026-05-04 01:17 | 30.46656 | -81.81023 | 2073 ft | 164 kts | 87° |
| 2026-05-04 01:17 | 30.46881 | -81.79713 | 1867 ft | 165 kts | 83° |
| 2026-05-04 01:17 | 30.47159 | -81.78445 | 1640 ft | 163 kts | 81° |
| 2026-05-04 01:17 | 30.47479 | -81.77182 | 1438 ft | 164 kts | 80° |
| 2026-05-04 01:18 | 30.47826 | -81.75926 | 1256 ft | 162 kts | 78° |
| 2026-05-04 01:18 | 30.48177 | -81.74705 | 1196 ft | 165 kts | 78° |
| 2026-05-04 01:18 | 30.48556 | -81.73460 | 800 ft | 156 kts | 70° |
| 2026-05-04 01:18 | 30.48921 | -81.72373 | 520 ft | 138 kts | 79° |
| 2026-05-04 01:19 | 30.49234 | -81.71294 | 280 ft | 148 kts | 74° |
| 2026-05-04 01:19 | 30.49584 | -81.70127 | 156 ft | 151 kts | 72° |
| 2026-05-04 01:19 | 30.49911 | -81.69032 | 253 ft | 143 kts | 74° |
| 2026-05-04 01:19 | 30.50225 | -81.67883 | 660 ft | 148 kts | 81° |
| 2026-05-04 01:20 | 30.50046 | -81.66823 | 713 ft | 132 kts | 131° |
| 2026-05-04 01:20 | 30.49295 | -81.66475 | 567 ft | 121 kts | 189° |
| 2026-05-04 01:20 | 30.48536 | -81.66973 | 561 ft | 116 kts | 217° |
| 2026-05-04 01:20 | 30.47588 | -81.67877 | 715 ft | 288 kts | 217° |